Maxwell, Texas
Current Conditions -  °F | °C
As of 8:35 PM on Saturday 20 Dec 2014 (Local Time) from KHYI Reporting Station
Overcast Overcast  
Wind Chill: 50°   Ceiling: 2900
Heat Index: 50°   Visibility: 9mi
Dew Point: 46°   Wind: 8mph
Humidity: 87%   Direction: 60°ENE
Pressure: 30.17"   Gusts: NA
Location:  29.88°N, 97.79°W
Report Text: KHYI 210235Z 06007KT 9SM OVC029 10/08 A3017 RMK AO1
Loading
Personal Weather Stations






























Interactive Weather Map New forecast layout! Learn more

10-Day Weather Forecast

Advertisements
Track Severe Weather on mobile